| time (UTC) | temp F | wind direction | speed MPH | gust MPH | rain 1hr in | rain 24hr in | rain mn in | humidity % | barometer mb |
| 20260507184545 | 61 | 59 | 5.0 | 13.0 | 0.00 | 0.00 | 0.00 | 28 | 1008.7 |
| 20260507183035 | 59 | 82 | 2.0 | 11.0 | 0.00 | 0.00 | 0.00 | 29 | 1008.7 |
| 20260507181527 | 59 | 65 | 7.0 | 15.0 | 0.00 | 0.00 | 0.00 | 28 | 1008.8 |
| 20260507180051 | 57 | 12 | 6.0 | 10.0 | 0.00 | 0.00 | 0.00 | 30 | 1009.0 |
| 20260507174543 | 57 | 86 | 8.0 | 11.0 | 0.00 | 0.00 | 0.00 | 30 | 1009.1 |
| 20260507173036 | 58 | 46 | 9.0 | 13.0 | 0.00 | 0.00 | 0.00 | 32 | 1009.2 |
| 20260507171527 | 58 | 82 | 8.0 | 14.0 | 0.00 | 0.00 | 0.00 | 32 | 1009.3 |
| 20260507170050 | 56 | 82 | 4.0 | 10.0 | 0.00 | 0.00 | 0.00 | 33 | 1009.6 |
| 20260507164542 | 55 | 71 | 4.0 | 10.0 | 0.00 | 0.00 | 0.00 | 33 | 1009.7 |
| 20260507163035 | 55 | 76 | 5.0 | 9.0 | 0.00 | 0.00 | 0.00 | 34 | 1009.6 |
| 20260507161526 | 54 | 84 | 2.0 | 7.0 | 0.00 | 0.00 | 0.00 | 34 | 1009.8 |
| 20260507160051 | 53 | 49 | 5.0 | 9.0 | 0.00 | 0.00 | 0.00 | 36 | 1009.9 |
| 20260507154544 | 53 | 41 | 9.0 | 13.0 | 0.00 | 0.00 | 0.00 | 36 | 1010.0 |
| 20260507153038 | 54 | 56 | 7.0 | 11.0 | 0.00 | 0.00 | 0.00 | 34 | 1009.9 |
| 20260507151528 | 55 | 13 | 5.0 | 11.0 | 0.00 | 0.00 | 0.00 | 31 | 1009.8 |
| 20260507150103 | 54 | 332 | 3.0 | 8.0 | 0.00 | 0.00 | 0.00 | 32 | 1009.9 |
| 20260507144550 | 52 | 266 | 3.0 | 5.0 | 0.00 | 0.00 | 0.00 | 34 | 1009.8 |
| 20260507143038 | 51 | 315 | 2.0 | 6.0 | 0.00 | 0.00 | 0.00 | 41 | 1009.9 |
| 20260507141527 | 49 | 298 | 5.0 | 8.0 | 0.00 | 0.00 | 0.00 | 39 | 1009.9 |
| 20260507140108 | 45 | 329 | 0.0 | 3.0 | 0.00 | 0.00 | 0.00 | 49 | 1009.9 |
| 20260507134545 | 43 | 295 | 0.0 | 2.0 | 0.00 | 0.00 | 0.00 | 54 | 1009.8 |
| 20260507133035 | 42 | 360 | 1.0 | 3.0 | 0.00 | 0.00 | 0.00 | 54 | 1009.7 |
| 20260507131535 | 40 | 279 | 2.0 | 3.0 | 0.00 | 0.00 | 0.00 | 60 | 1009.5 |
| 20260507130100 | 38 | 221 | 0.0 | 2.0 | 0.00 | 0.00 | 0.00 | 58 | 1009.4 |
| 20260507124547 | 38 | 211 | 2.0 | 4.0 | 0.00 | 0.00 | 0.00 | 57 | 1009.3 |
| 20260507123039 | 36 | 211 | 3.0 | 5.0 | 0.00 | 0.00 | 0.00 | 55 | 1009.1 |
| 20260507121529 | 36 | 209 | 1.0 | 2.0 | 0.00 | 0.00 | 0.00 | 53 | 1009.1 |
| 20260507120048 | 35 | 202 | 1.0 | 5.0 | 0.00 | 0.00 | 0.00 | 53 | 1009.1 |
| 20260507114539 | 36 | 203 | 1.0 | 4.0 | 0.00 | 0.00 | 0.00 | 52 | 1008.9 |
| 20260507113039 | 36 | 203 | 1.0 | 2.0 | 0.00 | 0.00 | 0.00 | 52 | 1008.8 |
| 20260507111526 | 35 | 360 | 3.0 | 4.0 | 0.00 | 0.00 | 0.00 | 53 | 1008.7 |
| 20260507110055 | 35 | 218 | 3.0 | 5.0 | 0.00 | 0.00 | 0.00 | 53 | 1008.5 |
| 20260507104544 | 37 | 218 | 3.0 | 4.0 | 0.00 | 0.00 | 0.00 | 51 | 1008.5 |
| 20260507103036 | 36 | 218 | 3.0 | 5.0 | 0.00 | 0.00 | 0.00 | 52 | 1008.3 |
| 20260507101537 | 35 | 218 | 3.0 | 6.0 | 0.00 | 0.00 | 0.00 | 58 | 1008.4 |
| 20260507100047 | 35 | 218 | 2.0 | 4.0 | 0.00 | 0.00 | 0.00 | 55 | 1008.3 |
| 20260507094548 | 34 | 218 | 3.0 | 5.0 | 0.00 | 0.00 | 0.00 | 57 | 1008.4 |
| 20260507093035 | 33 | 218 | 5.0 | 7.0 | 0.00 | 0.00 | 0.00 | 58 | 1008.4 |
| 20260507091549 | 33 | 221 | 3.0 | 5.0 | 0.00 | 0.00 | 0.00 | 57 | 1008.4 |
| 20260507090111 | 34 | 221 | 4.0 | 6.0 | 0.00 | 0.00 | 0.00 | 55 | 1008.5 |
| 20260507084542 | 35 | 221 | 2.0 | 4.0 | 0.00 | 0.00 | 0.00 | 52 | 1008.5 |
| 20260507083034 | 36 | 221 | 3.0 | 5.0 | 0.00 | 0.00 | 0.00 | 52 | 1008.3 |
| 20260507081534 | 37 | 223 | 3.0 | 7.0 | 0.00 | 0.00 | 0.00 | 50 | 1008.4 |
| 20260507080047 | 38 | 223 | 4.0 | 6.0 | 0.00 | 0.00 | 0.00 | 50 | 1008.5 |
| 20260507074540 | 38 | 145 | 2.0 | 3.0 | 0.00 | 0.00 | 0.00 | 48 | 1008.7 |
| 20260507073031 | 38 | 146 | 0.0 | 2.0 | 0.00 | 0.00 | 0.00 | 48 | 1008.7 |
| 20260507071525 | 39 | 145 | 1.0 | 3.0 | 0.00 | 0.00 | 0.00 | 46 | 1008.7 |
| 20260507070010 | 38 | 144 | 0.0 | 2.0 | 0.00 | 0.00 | 0.00 | 48 | 1008.7 |
| 20260507064555 | 37 | 145 | 0.0 | 3.0 | 0.00 | 0.00 | 0.00 | 48 | 1008.7 |
| 20260507063047 | 37 | 144 | 3.0 | 4.0 | 0.00 | 0.00 | 0.00 | 50 | 1008.8 |
| 20260507061538 | 38 | 144 | 2.0 | 4.0 | 0.00 | 0.00 | 0.00 | 49 | 1008.9 |
| 20260507060053 | 38 | 144 | 2.0 | 4.0 | 0.00 | 0.00 | 0.00 | 49 | 1008.9 |
| 20260507054546 | 39 | 144 | 3.0 | 4.0 | 0.00 | 0.00 | 0.00 | 48 | 1009.0 |
| 20260507053031 | 40 | 144 | 3.0 | 5.0 | 0.00 | 0.00 | 0.00 | 46 | 1009.1 |
| 20260507051525 | 41 | 144 | 1.0 | 3.0 | 0.00 | 0.00 | 0.00 | 45 | 1009.2 |
| 20260507050056 | 42 | 144 | 2.0 | 3.0 | 0.00 | 0.00 | 0.00 | 46 | 1009.2 |
| 20260507044549 | 43 | 144 | 2.0 | 4.0 | 0.00 | 0.00 | 0.00 | 45 | 1009.3 |
| 20260507043040 | 45 | 144 | 2.0 | 5.0 | 0.00 | 0.00 | 0.00 | 42 | 1009.6 |
| 20260507041527 | 46 | 144 | 3.0 | 5.0 | 0.00 | 0.00 | 0.00 | 39 | 1009.7 |
| 20260507040052 | 47 | 143 | 3.0 | 5.0 | 0.00 | 0.00 | 0.00 | 38 | 1010.0 |
| 20260507034546 | 47 | 144 | 1.0 | 4.0 | 0.00 | 0.00 | 0.00 | 38 | 1010.3 |
| 20260507033033 | 48 | 144 | 3.0 | 8.0 | 0.00 | 0.00 | 0.00 | 38 | 1010.4 |
| 20260507031526 | 48 | 140 | 6.0 | 10.0 | 0.00 | 0.00 | 0.00 | 37 | 1010.6 |
| 20260507030056 | 49 | 140 | 8.0 | 11.0 | 0.00 | 0.00 | 0.00 | 37 | 1010.5 |
| 20260507024544 | 49 | 134 | 8.0 | 9.0 | 0.00 | 0.00 | 0.00 | 36 | 1010.6 |
| 20260507023035 | 49 | 142 | 4.0 | 9.0 | 0.00 | 0.00 | 0.00 | 34 | 1010.7 |
| 20260507021525 | 50 | 129 | 7.0 | 10.0 | 0.00 | 0.00 | 0.00 | 34 | 1010.8 |
| 20260507020053 | 51 | 129 | 5.0 | 9.0 | 0.00 | 0.00 | 0.00 | 33 | 1011.0 |
| 20260507014553 | 52 | 127 | 5.0 | 13.0 | 0.00 | 0.00 | 0.00 | 31 | 1011.0 |
| 20260507013036 | 53 | 132 | 4.0 | 9.0 | 0.00 | 0.00 | 0.00 | 30 | 1011.1 |
| 20260507011530 | 54 | 231 | 2.0 | 4.0 | 0.00 | 0.00 | 0.00 | 27 | 1011.1 |
| 20260507010045 | 56 | 232 | 0.0 | 5.0 | 0.00 | 0.00 | 0.00 | 27 | 1011.3 |
| 20260507004536 | 56 | 229 | 2.0 | 5.0 | 0.00 | 0.00 | 0.00 | 26 | 1011.3 |
| 20260507003028 | 56 | 231 | 4.0 | 8.0 | 0.00 | 0.00 | 0.00 | 24 | 1011.3 |
| 20260507001521 | 56 | 247 | 7.0 | 15.0 | 0.00 | 0.00 | 0.00 | 24 | 1011.5 |
| 20260507000045 | 56 | 360 | 9.0 | 16.0 | 0.00 | 0.00 | 0.00 | 26 | 1011.5 |
| 20260506234537 | 57 | 292 | 11.0 | 18.0 | 0.00 | 0.00 | 0.00 | 24 | 1011.7 |
| 20260506233030 | 56 | 360 | 12.0 | 22.0 | 0.00 | 0.00 | 0.00 | 26 | 1011.9 |
| 20260506231522 | 57 | 360 | 16.0 | 25.0 | 0.00 | 0.00 | 0.00 | 25 | 1011.9 |
| 20260506230045 | 57 | 360 | 14.0 | 27.0 | 0.00 | 0.00 | 0.00 | 24 | 1012.3 |
| 20260506224538 | 56 | 315 | 13.0 | 21.0 | 0.00 | 0.00 | 0.00 | 25 | 1012.4 |
| 20260506223031 | 57 | 306 | 13.0 | 26.0 | 0.00 | 0.00 | 0.00 | 26 | 1012.5 |
| 20260506221525 | 56 | 360 | 18.0 | 25.0 | 0.00 | 0.00 | 0.00 | 25 | 1012.6 |
| 20260506220052 | 56 | 288 | 14.0 | 24.0 | 0.00 | 0.00 | 0.00 | 24 | 1013.1 |
| 20260506214545 | 56 | 248 | 14.0 | 23.0 | 0.00 | 0.00 | 0.00 | 24 | 1013.4 |
| 20260506213034 | 56 | 322 | 12.0 | 24.0 | 0.00 | 0.00 | 0.00 | 25 | 1013.7 |
| 20260506211522 | 55 | 337 | 17.0 | 25.0 | 0.00 | 0.00 | 0.00 | 26 | 1014.0 |
| 20260506210051 | 55 | 333 | 12.0 | 22.0 | 0.00 | 0.00 | 0.00 | 27 | 1014.3 |
| 20260506204541 | 55 | 360 | 18.0 | 25.0 | 0.00 | 0.00 | 0.00 | 29 | 1014.7 |
| 20260506203034 | 55 | 344 | 11.0 | 23.0 | 0.00 | 0.00 | 0.00 | 29 | 1014.9 |
| 20260506201539 | 54 | 341 | 12.0 | 21.0 | 0.00 | 0.00 | 0.00 | 31 | 1015.1 |
| 20260506200054 | 53 | 360 | 17.0 | 24.0 | 0.00 | 0.00 | 0.00 | 28 | 1015.4 |
| 20260506194551 | 53 | 329 | 17.0 | 24.0 | 0.00 | 0.00 | 0.00 | 28 | 1015.5 |
| 20260506193043 | 52 | 360 | 13.0 | 23.0 | 0.00 | 0.00 | 0.00 | 29 | 1015.8 |
| 20260506191527 | 51 | 325 | 10.0 | 22.0 | 0.00 | 0.00 | 0.00 | 31 | 1016.2 |
| 20260506190046 | 51 | 330 | 16.0 | 23.0 | 0.00 | 0.00 | 0.00 | 30 | 1016.5 |